Time;durP1;ratioP1;P1;durP2;ratioP2;P2;SDS_P1;SDS_P2;PMS_P1;PMS_P2;Temp;Humidity;BMP_temperature;BMP_pressure;BME280_temperature;BME280_humidity;BME280_pressure;Samples;Min_cycle;Max_cycle;Signal;HPM_P1;HPM_P2
2023/07/07 00:00:22;;;;;;;;;;;23.50;47.90;;;23.62;33.70;98881.63;4981268;28;113061;-76
2023/07/07 00:02:50;;;;;;;;;;;23.40;48.00;;;23.57;33.98;98879.97;4969982;28;122053;-76
2023/07/07 00:05:17;;;;;;;;;;;23.40;48.10;;;23.52;33.88;98874.72;4985117;28;124614;-76
2023/07/07 00:07:44;;;;;;;;;;;23.30;48.10;;;23.49;34.03;98879.13;4982816;28;114465;-76
2023/07/07 00:10:10;;;;;;;;;;;23.30;48.30;;;23.45;34.18;98871.88;4980692;28;113668;-76
2023/07/07 00:12:38;;;;;;;;;;;23.30;48.40;;;23.42;34.08;98879.09;4984451;28;124157;-77
2023/07/07 00:15:05;;;;;;;;;;;23.20;48.40;;;23.40;34.29;98886.34;4982836;28;123951;-76
2023/07/07 00:17:33;;;;;;;;;;;23.20;48.50;;;23.36;34.25;98875.06;4987767;28;114786;-76
2023/07/07 00:20:07;;;;;;;;;;;23.20;48.70;;;23.32;34.38;98880.69;4986180;28;114763;-80
2023/07/07 00:22:34;;;;;;;;;;;23.10;48.80;;;23.29;34.47;98878.69;4979613;28;124385;-76
2023/07/07 00:25:02;;;;;;;;;;;23.10;48.90;;;23.28;34.62;98887.50;4981334;28;123898;-77
2023/07/07 00:27:30;;;;;;;;;;;23.10;49.10;;;23.24;34.91;98883.84;4985917;28;113368;-76
2023/07/07 00:29:57;;;;;;;;;;;23.00;49.20;;;23.20;34.95;98883.84;4981636;28;113509;-76
2023/07/07 00:32:26;;;;;;;;;;;23.00;49.40;;;23.16;34.76;98883.03;4978877;28;123195;-76
2023/07/07 00:34:54;;;;;;;;;;;23.00;49.50;;;23.14;34.93;98888.25;4986002;28;124578;-77
2023/07/07 00:37:20;;;;;;;;;;;22.90;49.50;;;23.10;35.12;98887.41;4980398;28;114386;-76
2023/07/07 00:39:46;;;;;;;;;;;22.90;49.70;;;23.07;35.21;98888.22;4976007;28;114935;-75
2023/07/07 00:42:12;;;;;;;;;;;22.90;50.00;;;23.04;35.44;98875.72;4983741;28;125229;-75
2023/07/07 00:45:14;;;;;;;;;;;22.90;50.00;;;23.00;35.14;98885.34;4982690;28;123877;-75
2023/07/07 00:48:01;;;;;;;;;;;22.80;50.80;;;22.96;35.66;98884.50;4980190;28;114413;-75
2023/07/07 00:50:32;;;;;;;;;;;22.70;50.20;;;22.94;35.38;98877.25;4981687;28;114222;-75
2023/07/07 00:52:59;;;;;;;;;;;22.70;50.40;;;22.92;35.65;98882.47;4983847;28;124377;-76
2023/07/07 00:55:42;;;;;;;;;;;22.70;50.40;;;22.90;35.60;98882.06;4974142;28;124322;-76
2023/07/07 00:58:11;;;;;;;;;;;22.70;50.50;;;22.87;35.54;98882.03;4968092;28;113327;-75
2023/07/07 01:00:39;;;;;;;;;;;22.60;50.50;;;22.84;35.83;98889.28;4984830;28;113827;-75
2023/07/07 01:03:19;;;;;;;;;;;22.60;50.60;;;22.79;35.58;98889.63;4989174;28;124381;-75
2023/07/07 01:05:46;;;;;;;;;;;22.60;50.60;;;22.78;35.86;98895.66;4982816;28;123888;-75
2023/07/07 01:08:16;;;;;;;;;;;22.60;50.70;;;22.74;35.59;98904.09;4979536;28;115634;-77
2023/07/07 01:10:42;;;;;;;;;;;22.50;50.70;;;22.71;35.66;98900.03;4967534;28;113710;-76
2023/07/07 01:13:09;;;;;;;;;;;22.50;50.70;;;22.68;35.84;98905.66;4994782;28;124408;-75
2023/07/07 01:15:41;;;;;;;;;;;22.50;50.80;;;22.64;35.99;98904.81;4982228;28;123833;-75
2023/07/07 01:18:38;;;;;;;;;;;22.40;50.80;;;22.60;35.90;98907.63;4987288;28;114449;-76
2023/07/07 01:21:17;;;;;;;;;;;22.40;50.90;;;22.56;36.06;98912.41;4990106;28;114733;-76
2023/07/07 01:24:02;;;;;;;;;;;22.40;51.00;;;22.52;36.13;98910.78;4971761;28;123519;-75
2023/07/07 01:26:51;;;;;;;;;;;22.30;51.00;;;22.48;36.36;98905.88;4975355;28;124645;-75
2023/07/07 01:29:25;;;;;;;;;;;22.30;51.80;;;22.44;36.28;98905.06;4986600;28;114473;-75
2023/07/07 01:32:02;;;;;;;;;;;22.20;51.30;;;22.43;36.37;98909.09;4981872;28;113651;-76
2023/07/07 01:34:33;;;;;;;;;;;22.20;51.40;;;22.40;36.73;98911.88;4978901;28;124877;-75
2023/07/07 01:36:59;;;;;;;;;;;22.20;51.50;;;22.36;36.72;98911.84;4980527;28;123561;-76
2023/07/07 01:39:26;;;;;;;;;;;22.10;51.60;;;22.34;36.81;98911.41;4988988;28;114533;-78
2023/07/07 01:42:01;;;;;;;;;;;22.10;51.80;;;22.33;36.62;98912.63;4982019;28;113743;-75
2023/07/07 01:44:33;;;;;;;;;;;22.10;51.90;;;22.30;36.84;98910.59;4971330;28;123976;-76
2023/07/07 01:47:16;;;;;;;;;;;22.10;52.10;;;22.26;36.93;98904.91;4987671;28;124135;-75
2023/07/07 01:49:49;;;;;;;;;;;22.00;52.10;;;22.22;36.86;98908.91;4990232;28;114076;-75
2023/07/07 01:52:26;;;;;;;;;;;22.00;53.00;;;22.18;37.19;98913.66;4978079;28;114251;-75
2023/07/07 01:55:03;;;;;;;;;;;22.00;52.50;;;22.14;37.39;98913.63;4992070;28;124852;-76
2023/07/07 01:57:31;;;;;;;;;;;21.90;53.40;;;22.11;37.43;98911.59;4984094;28;124384;-75
2023/07/07 01:59:58;;;;;;;;;;;21.90;52.90;;;22.10;38.02;98917.59;4987281;28;115084;-76
2023/07/07 02:02:27;;;;;;;;;;;21.60;52.90;;;22.05;38.10;98910.31;4972020;28;113703;-76
2023/07/07 02:04:54;;;;;;;;;;;21.90;53.40;;;22.01;37.85;98904.66;4985329;28;124735;-76
2023/07/07 02:07:20;;;;;;;;;;;21.80;53.40;;;21.98;38.33;98911.06;4988432;28;123905;-78
2023/07/07 02:09:49;;;;;;;;;;;21.80;53.70;;;21.95;38.41;98905.38;4990033;28;114283;-77
2023/07/07 02:12:15;;;;;;;;;;;21.70;53.70;;;21.90;38.25;98909.38;4986736;28;113856;-78
2023/07/07 02:14:44;;;;;;;;;;;21.70;53.90;;;21.86;38.56;98902.88;4974708;28;123315;-77
2023/07/07 02:17:15;;;;;;;;;;;21.70;54.10;;;21.82;38.46;98902.84;4990169;28;123157;-77
2023/07/07 02:19:42;;;;;;;;;;;21.60;54.10;;;21.79;38.70;98902.81;4989209;28;114482;-78
2023/07/07 02:22:09;;;;;;;;;;;21.60;54.30;;;21.75;38.72;98897.13;4976735;28;114020;-80
2023/07/07 02:24:35;;;;;;;;;;;21.60;54.40;;;21.74;38.97;98903.16;4980823;28;124237;-78
2023/07/07 02:27:03;;;;;;;;;;;21.50;54.50;;;21.72;38.74;98903.53;4990277;28;123848;-78
2023/07/07 02:29:29;;;;;;;;;;;21.50;54.60;;;21.70;38.66;98905.13;4990324;28;114465;-79
2023/07/07 02:31:55;;;;;;;;;;;21.50;54.70;;;21.69;39.11;98907.13;4974593;28;113015;-78
2023/07/07 02:34:21;;;;;;;;;;;21.40;54.80;;;21.69;39.21;98903.50;4989495;28;124681;-78
2023/07/07 02:36:52;;;;;;;;;;;21.50;55.10;;;21.66;39.12;98898.66;4984829;28;123108;-78
2023/07/07 02:39:18;;;;;;;;;;;21.40;55.10;;;21.65;39.02;98911.09;4989342;28;114652;-79
2023/07/07 02:41:44;;;;;;;;;;;21.40;55.10;;;21.62;39.00;98898.59;4989420;28;113437;-79
2023/07/07 02:44:10;;;;;;;;;;;21.40;55.20;;;21.60;39.31;98900.97;4974930;28;124660;-79
2023/07/07 02:46:37;;;;;;;;;;;21.40;55.30;;;21.56;38.96;98898.13;4988668;28;123400;-77
2023/07/07 02:49:05;;;;;;;;;;;21.30;55.20;;;21.53;39.20;98896.09;4988788;28;115538;-78
2023/07/07 02:51:31;;;;;;;;;;;21.30;55.20;;;21.50;39.15;98898.88;4970621;28;113890;-78
2023/07/07 02:53:58;;;;;;;;;;;21.30;55.20;;;21.48;38.82;98893.63;4981729;28;124655;-78
2023/07/07 02:56:24;;;;;;;;;;;21.20;55.10;;;21.46;39.37;98903.63;4969931;28;123985;-78
2023/07/07 02:58:50;;;;;;;;;;;21.20;55.10;;;21.44;39.31;98903.19;4984721;28;115182;-78
2023/07/07 03:01:19;;;;;;;;;;;21.20;55.10;;;21.41;39.07;98899.16;4980469;28;114296;-79
2023/07/07 03:03:50;;;;;;;;;;;21.20;55.20;;;21.37;39.26;98903.91;4986356;28;124805;-78
2023/07/07 03:06:23;;;;;;;;;;;21.20;55.20;;;21.35;39.17;98892.22;4984532;28;123469;-78
2023/07/07 03:08:52;;;;;;;;;;;21.10;55.20;;;21.30;39.11;98893.34;4976790;28;113472;-78
2023/07/07 03:11:21;;;;;;;;;;;21.10;55.30;;;21.29;38.97;98896.56;4986254;28;113867;-78
2023/07/07 03:13:48;;;;;;;;;;;21.10;55.30;;;21.25;39.49;98898.50;4982583;28;124004;-78
2023/07/07 03:16:20;;;;;;;;;;;21.00;55.30;;;21.22;39.15;98907.72;4986137;28;123981;-78
2023/07/07 03:18:55;;;;;;;;;;;21.00;55.40;;;21.19;39.42;98912.09;4980788;28;114633;-78
2023/07/07 03:21:22;;;;;;;;;;;21.00;55.50;;;21.17;39.31;98918.09;4984330;28;113485;-78
2023/07/07 03:23:55;;;;;;;;;;;20.90;55.50;;;21.15;39.10;98920.47;4956876;28;123244;-76
2023/07/07 03:26:25;;;;;;;;;;;21.00;55.70;;;21.12;39.80;98921.25;4979110;28;123971;-78
2023/07/07 03:28:52;;;;;;;;;;;20.90;55.70;;;21.10;39.31;98923.63;4991963;28;114069;-77
2023/07/07 03:31:22;;;;;;;;;;;20.90;55.70;;;21.08;39.62;98928.00;4987878;28;113677;-76
2023/07/07 03:33:50;;;;;;;;;;;20.90;55.70;;;21.06;39.94;98924.75;4974803;28;124336;-78
2023/07/07 03:36:21;;;;;;;;;;;20.80;55.80;;;21.03;39.44;98929.13;4980755;28;124190;-77
2023/07/07 03:38:47;;;;;;;;;;;20.80;55.80;;;21.01;39.85;98931.53;4976624;28;115585;-77
2023/07/07 03:41:19;;;;;;;;;;;20.80;55.90;;;20.99;39.69;98931.09;4983455;28;114771;-78
2023/07/07 03:43:46;;;;;;;;;;;20.80;56.00;;;20.98;39.55;98937.88;4986074;28;124195;-79
2023/07/07 03:46:15;;;;;;;;;;;20.70;55.90;;;20.96;39.84;98935.47;4992297;28;98088;-79
2023/07/07 03:48:46;;;;;;;;;;;20.70;56.00;;;20.95;39.68;98938.63;4986814;28;114590;-77
2023/07/07 03:51:12;;;;;;;;;;;20.70;56.10;;;20.91;39.83;98932.97;4987546;28;114280;-76
2023/07/07 03:53:39;;;;;;;;;;;20.70;56.10;;;20.90;39.69;98945.41;4989232;28;124611;-80
2023/07/07 03:56:05;;;;;;;;;;;20.60;55.90;;;20.91;39.56;98946.22;4991501;28;124003;-76
2023/07/07 03:58:32;;;;;;;;;;;20.60;56.00;;;20.93;39.40;98947.47;4975605;28;113673;-76
2023/07/07 04:01:06;;;;;;;;;;;20.60;56.10;;;20.95;39.45;98942.28;4980646;28;114543;-76
2023/07/07 04:03:33;;;;;;;;;;;20.60;56.10;;;20.96;39.46;98948.72;4986646;28;124340;-76
2023/07/07 04:06:00;;;;;;;;;;;20.60;56.10;;;20.98;39.72;98943.50;4990267;28;125159;-76
2023/07/07 04:08:26;;;;;;;;;;;20.70;56.30;;;21.07;39.55;98948.88;4972459;28;114432;-76
2023/07/07 04:11:21;;;;;;;;;;;20.70;56.50;;;21.22;39.24;98952.66;4985930;28;112708;-77
2023/07/07 04:13:51;;;;;;;;;;;20.70;56.50;;;21.35;39.27;98945.63;4983614;28;125456;-78
2023/07/07 04:16:20;;;;;;;;;;;20.70;56.60;;;21.40;39.46;98951.75;4987687;28;124123;-77
2023/07/07 04:18:52;;;;;;;;;;;20.80;56.80;;;21.40;39.27;98960.19;4989468;28;115075;-76
2023/07/07 04:21:23;;;;;;;;;;;20.80;56.80;;;21.37;39.39;98954.50;4982346;28;114195;-76
2023/07/07 04:23:51;;;;;;;;;;;20.90;56.80;;;21.33;39.68;98953.63;4978283;28;124158;-78
2023/07/07 04:26:19;;;;;;;;;;;20.90;56.80;;;21.30;39.51;98954.38;4979052;28;124640;-76
2023/07/07 04:28:45;;;;;;;;;;;20.90;56.90;;;21.26;39.31;98959.97;4967318;28;114246;-78
2023/07/07 04:31:13;;;;;;;;;;;20.90;56.70;;;21.19;39.61;98959.84;4977451;28;115366;-77
2023/07/07 04:33:42;;;;;;;;;;;20.90;56.60;;;21.11;39.57;98958.94;4969119;28;124076;-77
2023/07/07 04:36:13;;;;;;;;;;;20.80;56.60;;;21.07;39.45;98958.09;4980990;28;124547;-77
2023/07/07 04:38:39;;;;;;;;;;;20.80;56.50;;;21.07;39.74;98963.72;4988397;28;113693;-78
2023/07/07 04:41:13;;;;;;;;;;;20.80;56.70;;;21.04;39.88;98964.47;4983269;28;113743;-78
2023/07/07 04:43:41;;;;;;;;;;;20.70;56.80;;;21.02;40.76;98961.22;4986952;28;124290;-77
2023/07/07 04:46:12;;;;;;;;;;;20.80;57.60;;;21.02;40.24;98963.22;4982890;28;124541;-76
2023/07/07 04:48:39;;;;;;;;;;;20.70;57.50;;;21.01;40.49;98965.25;4990200;28;113977;-77
2023/07/07 04:51:07;;;;;;;;;;;20.80;57.70;;;21.01;40.63;98970.03;4980912;28;113751;-76
2023/07/07 04:53:38;;;;;;;;;;;20.70;57.70;;;21.03;40.43;98967.66;4967488;28;123706;-78
2023/07/07 04:56:09;;;;;;;;;;;20.70;57.70;;;21.09;40.82;98971.75;4966187;28;122237;-76
2023/07/07 04:58:36;;;;;;;;;;;20.80;58.00;;;21.11;40.76;98975.81;4979899;28;114404;-78
2023/07/07 05:01:08;;;;;;;;;;;20.80;58.40;;;21.10;40.53;98971.38;4971241;28;113624;-78
2023/07/07 05:03:37;;;;;;;;;;;20.70;58.20;;;21.10;40.69;98968.56;4984431;28;124789;-77
2023/07/07 05:06:06;;;;;;;;;;;20.80;58.40;;;21.13;41.02;98967.81;4974287;28;123850;-76
2023/07/07 05:08:35;;;;;;;;;;;20.80;58.50;;;21.15;40.97;98965.44;4980308;28;114562;-76
2023/07/07 05:11:03;;;;;;;;;;;20.80;58.50;;;21.17;40.99;98963.06;4988858;28;113188;-76
2023/07/07 05:13:30;;;;;;;;;;;20.80;58.60;;;21.21;40.82;98967.91;4986951;28;124123;-77
2023/07/07 05:16:07;;;;;;;;;;;20.80;58.70;;;21.19;40.88;98969.09;4973492;28;124321;-77
2023/07/07 05:18:33;;;;;;;;;;;20.80;58.70;;;21.18;40.69;98963.88;4986509;28;115325;-76
2023/07/07 05:21:02;;;;;;;;;;;20.90;58.70;;;21.18;40.87;98970.28;4971072;28;113806;-76
2023/07/07 05:23:28;;;;;;;;;;;20.90;58.80;;;21.22;41.24;98967.53;4968080;28;123928;-77
2023/07/07 05:25:55;;;;;;;;;;;20.80;58.70;;;21.25;40.76;98974.38;4985483;28;124521;-76
2023/07/07 05:28:22;;;;;;;;;;;20.90;58.80;;;21.29;41.08;98969.63;4982210;28;114380;-75
2023/07/07 05:30:48;;;;;;;;;;;20.30;58.30;;;21.32;40.71;98968.88;4983522;28;113865;-75
2023/07/07 05:33:14;;;;;;;;;;;20.90;58.90;;;21.33;40.71;98970.47;4976391;28;124366;-76
2023/07/07 05:35:50;;;;;;;;;;;20.90;58.80;;;21.32;40.65;98968.88;4981751;28;123130;-78
2023/07/07 05:38:17;;;;;;;;;;;20.90;58.80;;;21.33;40.86;98973.28;4980075;28;114407;-77
2023/07/07 05:40:45;;;;;;;;;;;20.90;58.80;;;21.36;40.79;98969.75;4981062;28;114392;-77
2023/07/07 05:43:15;;;;;;;;;;;21.00;59.10;;;21.36;40.99;98972.56;4986097;28;124364;-76
2023/07/07 05:45:42;;;;;;;;;;;20.90;59.20;;;21.37;40.97;98969.38;4997728;28;124017;-77
2023/07/07 05:48:11;;;;;;;;;;;20.90;59.30;;;21.42;40.83;98982.31;4983962;28;114265;-77
2023/07/07 05:50:38;;;;;;;;;;;21.00;59.30;;;21.49;41.07;98968.31;4980283;28;113747;-77
2023/07/07 05:53:05;;;;;;;;;;;21.00;59.30;;;21.57;40.46;98975.69;4981551;28;124097;-77
2023/07/07 05:55:33;;;;;;;;;;;21.10;59.40;;;21.66;40.95;98968.97;4973944;28;123731;-76
2023/07/07 05:58:00;;;;;;;;;;;22.00;60.10;;;21.74;40.69;98979.09;4988314;28;113411;-77
2023/07/07 06:00:28;;;;;;;;;;;21.20;59.30;;;21.78;40.42;98982.75;4989074;28;113945;-76
2023/07/07 06:02:55;;;;;;;;;;;21.30;59.40;;;21.82;40.64;98972.38;4973237;28;124219;-77
2023/07/07 06:05:22;;;;;;;;;;;21.40;59.40;;;21.89;40.32;98977.25;4974413;28;123597;-77
2023/07/07 06:07:49;;;;;;;;;;;21.30;59.20;;;21.96;40.31;98972.53;4969338;28;113115;-77
2023/07/07 06:10:15;;;;;;;;;;;21.50;59.30;;;21.97;39.94;98979.75;4975721;28;114909;-75
2023/07/07 06:12:44;;;;;;;;;;;21.50;59.10;;;21.98;40.23;98977.78;4986722;28;124194;-75
2023/07/07 06:15:11;;;;;;;;;;;21.50;58.90;;;22.02;40.12;98985.03;4989876;28;123743;-75
2023/07/07 06:17:37;;;;;;;;;;;21.50;58.90;;;22.08;40.06;98985.50;4981940;28;114595;-75
2023/07/07 06:20:04;;;;;;;;;;;21.60;58.70;;;22.11;39.76;98969.84;4981012;28;113978;-77
2023/07/07 06:22:30;;;;;;;;;;;21.60;58.60;;;22.14;39.95;98983.16;4970714;28;124763;-77
2023/07/07 06:24:56;;;;;;;;;;;21.60;58.70;;;22.16;39.86;98983.59;4986834;28;123646;-77
2023/07/07 06:27:22;;;;;;;;;;;21.60;58.80;;;22.17;39.81;98991.66;4988406;28;114607;-77
2023/07/07 06:29:48;;;;;;;;;;;21.70;59.00;;;22.23;40.00;98992.13;4976817;28;112619;-77
2023/07/07 06:32:15;;;;;;;;;;;21.70;58.90;;;22.34;39.94;98987.41;4987078;28;124197;-77
2023/07/07 06:34:41;;;;;;;;;;;21.80;59.00;;;22.44;39.56;98991.56;4974832;28;122871;-77
2023/07/07 06:37:07;;;;;;;;;;;21.90;59.00;;;22.54;39.73;98987.19;4978542;28;114647;-77
2023/07/07 06:39:33;;;;;;;;;;;22.00;59.00;;;22.60;39.49;98992.09;4988401;28;112759;-77
2023/07/07 06:42:01;;;;;;;;;;;22.00;58.90;;;22.68;39.53;98993.78;4988488;28;124620;-77
2023/07/07 06:44:27;;;;;;;;;;;22.10;58.90;;;22.79;39.12;98996.69;4983726;28;123739;-77
2023/07/07 06:46:53;;;;;;;;;;;22.20;58.80;;;22.84;39.29;98989.91;4987582;28;114129;-77
2023/07/07 06:49:20;;;;;;;;;;;22.30;58.70;;;22.90;39.11;98991.13;4988850;28;114314;-76
2023/07/07 06:51:46;;;;;;;;;;;22.40;58.70;;;22.99;38.91;98994.44;4987405;28;123982;-77
2023/07/07 06:54:15;;;;;;;;;;;22.40;58.60;;;23.06;38.89;99002.16;4979690;28;124416;-76
2023/07/07 06:56:43;;;;;;;;;;;22.50;58.70;;;23.10;38.89;98991.72;4976906;28;115957;-76
2023/07/07 06:59:12;;;;;;;;;;;22.60;58.50;;;23.17;38.80;98991.75;4990362;28;114435;-76
2023/07/07 07:01:39;;;;;;;;;;;22.60;58.40;;;23.25;38.78;98999.06;4988725;28;124497;-76
2023/07/07 07:04:06;;;;;;;;;;;22.70;58.40;;;23.34;38.71;98996.69;4986452;28;124018;-79
2023/07/07 07:06:32;;;;;;;;;;;22.80;58.40;;;23.45;38.54;98996.75;4973407;28;113334;-78
2023/07/07 07:08:58;;;;;;;;;;;22.90;58.40;;;23.54;38.53;98993.59;4979209;28;113773;-77
2023/07/07 07:11:24;;;;;;;;;;;22.90;58.20;;;23.64;38.17;98990.00;4987055;28;123397;-76
2023/07/07 07:13:51;;;;;;;;;;;23.00;58.20;;;23.73;38.27;98996.13;4987068;28;124529;-79
2023/07/07 07:16:17;;;;;;;;;;;23.10;58.10;;;23.83;38.05;99003.03;4976045;28;114517;-78
2023/07/07 07:18:46;;;;;;;;;;;23.20;58.10;;;23.94;38.02;99006.72;4987719;28;114041;-78
2023/07/07 07:21:12;;;;;;;;;;;23.30;58.00;;;24.04;37.93;99002.28;4988059;28;124186;-77
2023/07/07 07:23:39;;;;;;;;;;;23.40;57.90;;;24.12;37.77;98995.44;4988266;28;124139;-79
2023/07/07 07:26:05;;;;;;;;;;;23.40;57.70;;;24.21;37.46;98998.72;4981982;28;114053;-78
2023/07/07 07:28:31;;;;;;;;;;;23.50;57.60;;;24.32;37.40;99003.59;4986496;28;113611;-79
2023/07/07 07:30:57;;;;;;;;;;;23.60;57.50;;;24.40;37.10;99008.03;4984826;28;124626;-79
2023/07/07 07:33:24;;;;;;;;;;;23.70;57.30;;;24.48;36.78;99004.06;4963341;28;123130;-79
2023/07/07 07:35:50;;;;;;;;;;;23.80;57.20;;;24.55;37.00;99001.22;4987054;28;114799;-79
2023/07/07 07:38:21;;;;;;;;;;;23.90;57.00;;;24.62;36.67;99001.22;4981676;28;114015;-79
2023/07/07 07:40:50;;;;;;;;;;;23.90;56.80;;;24.66;36.63;98996.41;4970582;28;123087;-79
2023/07/07 07:43:17;;;;;;;;;;;24.00;56.60;;;24.69;36.39;98997.63;4984819;28;124557;-78
2023/07/07 07:45:43;;;;;;;;;;;24.00;56.40;;;24.72;36.67;98991.16;4986631;28;114985;-79
2023/07/07 07:48:12;;;;;;;;;;;24.10;56.60;;;24.79;36.24;98996.00;4980597;28;115308;-78
2023/07/07 07:50:38;;;;;;;;;;;24.20;56.40;;;24.85;36.33;98985.88;4983778;28;125065;-79
2023/07/07 07:53:04;;;;;;;;;;;24.20;56.50;;;24.94;36.37;98986.31;4984205;28;124653;-79
2023/07/07 07:55:31;;;;;;;;;;;24.30;56.50;;;25.04;36.35;98987.50;4981496;28;114848;-79
2023/07/07 07:57:57;;;;;;;;;;;24.40;56.20;;;25.09;36.28;98985.09;4977885;28;113748;-77
2023/07/07 08:00:23;;;;;;;;;;;24.40;56.00;;;25.12;36.09;98989.94;4986280;28;124592;-77
2023/07/07 08:02:50;;;;;;;;;;;24.50;56.10;;;25.13;35.92;98990.72;4983971;28;123774;-79
2023/07/07 08:05:17;;;;;;;;;;;24.50;56.10;;;25.20;35.81;98990.75;4989623;28;114167;-80
2023/07/07 08:07:43;;;;;;;;;;;24.60;56.10;;;25.30;35.87;98986.28;4992060;28;113772;-79
2023/07/07 08:10:09;;;;;;;;;;;24.70;56.00;;;25.39;35.93;98981.00;4988948;28;123453;-77
2023/07/07 08:12:35;;;;;;;;;;;24.80;55.90;;;25.49;35.60;98980.16;4983925;28;123994;-77
2023/07/07 08:15:02;;;;;;;;;;;24.80;55.80;;;25.60;35.21;98987.81;4989145;28;113139;-79
2023/07/07 08:17:29;;;;;;;;;;;24.90;55.60;;;25.65;35.49;98981.72;4966377;28;113395;-82
2023/07/07 08:19:59;;;;;;;;;;;25.00;55.50;;;25.70;35.32;98984.94;4987416;28;124353;-79
2023/07/07 08:22:25;;;;;;;;;;;25.10;55.30;;;25.75;35.04;98980.88;4982450;28;122877;-78
2023/07/07 08:24:56;;;;;;;;;;;25.10;55.80;;;25.83;34.70;98987.31;4985992;28;113811;-78
2023/07/07 08:27:24;;;;;;;;;;;25.20;54.90;;;25.86;34.64;98983.69;4984987;28;113640;-78
2023/07/07 08:29:51;;;;;;;;;;;25.20;54.90;;;25.90;34.87;98987.31;4982759;28;124159;-78
2023/07/07 08:32:21;;;;;;;;;;;25.30;54.60;;;25.95;34.93;98982.06;4987375;28;123859;-78
2023/07/07 08:34:52;;;;;;;;;;;25.40;54.40;;;26.00;34.89;98987.25;4969557;28;114575;-78
2023/07/07 08:37:20;;;;;;;;;;;25.40;54.40;;;26.08;34.28;98981.56;4989447;28;115392;-77
2023/07/07 08:39:46;;;;;;;;;;;25.50;54.50;;;26.16;34.78;98983.13;4980020;28;124341;-77
2023/07/07 08:42:25;;;;;;;;;;;25.50;54.30;;;26.24;34.53;98984.72;4987545;28;123891;-78
2023/07/07 08:44:53;;;;;;;;;;;25.60;54.20;;;26.31;33.94;98979.00;4987143;28;114334;-77
2023/07/07 08:47:40;;;;;;;;;;;25.70;53.80;;;26.37;33.89;98983.00;4983024;28;112974;-78
2023/07/07 08:50:22;;;;;;;;;;;25.70;53.80;;;26.42;34.08;98971.22;4988021;28;123516;-78
2023/07/07 08:53:03;;;;;;;;;;;25.80;54.00;;;26.50;34.48;98974.03;4986282;28;122904;-79
2023/07/07 08:55:47;;;;;;;;;;;25.90;54.00;;;26.56;33.89;98972.38;4993266;28;114454;-78
2023/07/07 08:58:34;;;;;;;;;;;26.00;53.70;;;26.63;34.03;98972.34;4989736;28;114097;-78
2023/07/07 09:01:18;;;;;;;;;;;26.10;53.70;;;26.70;33.64;98975.09;4968211;28;123578;-78
2023/07/07 09:03:58;;;;;;;;;;;26.20;53.60;;;26.78;33.74;98973.81;4987763;28;123888;-77
2023/07/07 09:06:41;;;;;;;;;;;26.20;53.60;;;26.86;33.84;98958.34;4985372;28;114250;-78
2023/07/07 09:09:29;;;;;;;;;;;26.30;53.50;;;26.95;33.52;98965.56;4987314;28;113357;-80
2023/07/07 09:12:05;;;;;;;;;;;26.40;52.70;;;27.03;32.64;98962.25;4976149;28;123904;-78
2023/07/07 09:14:31;;;;;;;;;;;26.40;52.00;;;27.12;32.67;98952.47;4986180;28;124139;-78
2023/07/07 09:17:02;;;;;;;;;;;26.50;52.00;;;27.20;32.53;98954.03;4993185;28;114449;-79
2023/07/07 09:19:36;;;;;;;;;;;26.60;52.10;;;27.24;32.31;98958.44;4988396;28;113750;-79
2023/07/07 09:22:08;;;;;;;;;;;26.70;51.20;;;27.30;31.71;98958.78;4991246;28;123971;-79
2023/07/07 09:24:43;;;;;;;;;;;26.70;50.60;;;27.39;31.67;98949.75;4986038;28;123709;-79
2023/07/07 09:27:40;;;;;;;;;;;26.80;50.60;;;27.46;30.43;98947.66;4989172;28;115667;-78
2023/07/07 09:30:27;;;;;;;;;;;26.80;49.30;;;27.52;29.56;98943.13;5007490;28;114416;-79
2023/07/07 09:32:53;;;;;;;;;;;26.90;47.10;;;27.60;28.85;98952.34;4988726;28;123194;-80
2023/07/07 09:35:24;;;;;;;;;;;27.00;46.60;;;27.66;28.87;98933.59;4977865;28;123643;-80
2023/07/07 09:38:08;;;;;;;;;;;27.10;46.20;;;27.72;28.53;98931.91;4980627;28;115169;-80
2023/07/07 09:40:56;;;;;;;;;;;27.20;45.70;;;27.77;28.28;98930.63;4989713;28;113616;-79
2023/07/07 09:43:29;;;;;;;;;;;27.20;45.50;;;27.84;27.88;98932.63;4983488;28;123313;-80
2023/07/07 09:46:07;;;;;;;;;;;27.20;45.80;;;27.89;27.48;98926.47;4983240;28;123619;-79
2023/07/07 09:48:58;;;;;;;;;;;27.30;44.70;;;27.95;27.54;98933.28;4990261;28;114162;-79
2023/07/07 09:51:46;;;;;;;;;;;27.40;44.40;;;28.03;27.16;98937.63;4992241;28;113516;-79
2023/07/07 09:54:15;;;;;;;;;;;27.40;43.60;;;28.10;27.17;98933.84;4984088;28;124343;-79
2023/07/07 09:56:57;;;;;;;;;;;27.50;43.60;;;28.16;26.79;98930.13;4976285;28;125499;-79
2023/07/07 09:59:37;;;;;;;;;;;27.60;43.20;;;28.23;27.12;98925.56;4990528;28;113620;-79
2023/07/07 10:02:13;;;;;;;;;;;27.60;43.20;;;28.29;26.88;98923.84;4976259;28;112751;-79
2023/07/07 10:04:44;;;;;;;;;;;27.70;42.90;;;28.34;26.87;98914.81;4963642;28;123994;-79
2023/07/07 10:07:11;;;;;;;;;;;27.80;43.10;;;28.40;26.72;98921.66;4982317;28;123767;-79
2023/07/07 10:09:37;;;;;;;;;;;27.80;42.60;;;28.42;26.50;98919.16;4987355;28;114312;-78
2023/07/07 10:12:04;;;;;;;;;;;27.90;42.30;;;28.45;26.37;98915.47;4989694;28;113576;-80
2023/07/07 10:14:30;;;;;;;;;;;27.90;42.20;;;28.50;26.57;98919.88;4972545;28;123663;-81
2023/07/07 10:17:09;;;;;;;;;;;28.00;42.60;;;28.53;27.07;98914.16;4983377;28;124664;-78
2023/07/07 10:19:52;;;;;;;;;;;28.00;43.00;;;28.55;26.65;98908.81;4982817;28;116067;-78
2023/07/07 10:22:20;;;;;;;;;;;28.00;42.80;;;28.58;26.21;98910.78;4982121;28;114959;-80
2023/07/07 10:24:49;;;;;;;;;;;28.00;42.70;;;28.63;26.75;98907.47;4982454;28;124292;-78
2023/07/07 10:27:18;;;;;;;;;;;28.10;42.70;;;28.68;26.57;98913.91;4978562;28;123258;-79
2023/07/07 10:29:46;;;;;;;;;;;28.10;42.20;;;28.71;26.59;98913.03;4984008;28;113973;-79
2023/07/07 10:32:16;;;;;;;;;;;28.20;42.20;;;28.75;26.60;98908.91;4999667;28;114832;-78
2023/07/07 10:34:48;;;;;;;;;;;28.30;42.50;;;28.79;26.61;98894.59;4969910;28;123030;-79
2023/07/07 10:37:20;;;;;;;;;;;28.30;42.50;;;28.81;26.38;98903.50;4990924;28;123371;-79
2023/07/07 10:39:57;;;;;;;;;;;28.30;42.10;;;28.82;25.87;98900.22;4985021;28;114564;-79
2023/07/07 10:42:25;;;;;;;;;;;28.30;41.20;;;28.88;25.18;98911.91;4987550;28;114319;-79
2023/07/07 10:44:52;;;;;;;;;;;28.40;40.60;;;28.91;24.89;98908.22;4985043;28;124221;-79
2023/07/07 10:47:30;;;;;;;;;;;28.40;40.10;;;28.94;24.79;98909.38;4983515;28;124315;-79
2023/07/07 10:49:57;;;;;;;;;;;28.40;39.50;;;29.00;24.60;98908.44;4985690;28;114524;-79
2023/07/07 10:52:57;;;;;;;;;;;28.50;39.20;;;29.04;24.67;98906.38;4983207;28;113880;-79
2023/07/07 10:55:28;;;;;;;;;;;28.50;39.10;;;29.10;24.66;98900.16;4986702;28;124267;-79
2023/07/07 10:58:32;;;;;;;;;;;28.60;39.40;;;29.15;24.69;98903.31;4986403;28;123823;-79
2023/07/07 11:01:35;;;;;;;;;;;28.60;39.30;;;29.21;24.88;98895.88;4974825;28;115017;-79
2023/07/07 11:04:07;;;;;;;;;;;28.70;39.40;;;29.26;24.44;98886.84;4984076;28;113808;-79
2023/07/07 11:06:42;;;;;;;;;;;28.80;39.00;;;29.34;24.45;98893.19;4984454;28;124620;-78
2023/07/07 11:09:11;;;;;;;;;;;28.80;39.10;;;29.45;24.57;98888.06;4986590;28;124352;-79
2023/07/07 11:11:48;;;;;;;;;;;28.90;39.10;;;29.57;24.85;98888.66;4976664;28;115647;-79
2023/07/07 11:14:42;;;;;;;;;;;29.00;39.40;;;29.66;24.62;98892.53;4989723;28;114346;-79
2023/07/07 11:17:25;;;;;;;;;;;29.10;39.60;;;29.75;24.41;98886.25;4985432;28;123705;-79
2023/07/07 11:20:08;;;;;;;;;;;29.20;39.40;;;29.81;23.14;98884.47;4980727;28;124025;-80
2023/07/07 11:22:59;;;;;;;;;;;29.30;37.30;;;29.88;23.40;98889.22;4983005;28;114959;-80
2023/07/07 11:25:32;;;;;;;;;;;29.40;37.40;;;29.97;22.91;98882.91;4988576;28;113619;-79